sensor_id;sensor_type;location;lat;lon;timestamp;P1;durP1;ratioP1;P2;durP2;ratioP2
58565;SDS011;47788;46.172;-1.158;2022-09-06T00:01:49;8.82;;;3.45;;
58565;SDS011;47788;46.172;-1.158;2022-09-06T00:04:15;10.35;;;3.08;;
58565;SDS011;47788;46.172;-1.158;2022-09-06T00:06:41;9.00;;;3.72;;
58565;SDS011;47788;46.172;-1.158;2022-09-06T00:09:06;12.43;;;4.20;;
58565;SDS011;47788;46.172;-1.158;2022-09-06T00:11:32;9.60;;;3.85;;
58565;SDS011;47788;46.172;-1.158;2022-09-06T00:13:58;11.13;;;4.28;;
58565;SDS011;47788;46.172;-1.158;2022-09-06T00:16:24;12.73;;;4.63;;
58565;SDS011;47788;46.172;-1.158;2022-09-06T00:18:53;9.32;;;4.30;;
58565;SDS011;47788;46.172;-1.158;2022-09-06T00:21:23;13.25;;;4.53;;
58565;SDS011;47788;46.172;-1.158;2022-09-06T00:23:50;11.60;;;3.58;;
58565;SDS011;47788;46.172;-1.158;2022-09-06T00:26:17;8.77;;;3.60;;
58565;SDS011;47788;46.172;-1.158;2022-09-06T00:28:43;11.30;;;4.30;;
58565;SDS011;47788;46.172;-1.158;2022-09-06T00:31:10;7.93;;;3.88;;
58565;SDS011;47788;46.172;-1.158;2022-09-06T00:33:38;9.20;;;4.25;;
58565;SDS011;47788;46.172;-1.158;2022-09-06T00:36:04;9.00;;;4.00;;
58565;SDS011;47788;46.172;-1.158;2022-09-06T00:38:30;12.73;;;4.55;;
58565;SDS011;47788;46.172;-1.158;2022-09-06T00:40:56;7.55;;;4.35;;
58565;SDS011;47788;46.172;-1.158;2022-09-06T00:43:22;12.23;;;4.63;;
58565;SDS011;47788;46.172;-1.158;2022-09-06T00:45:48;12.88;;;4.55;;
58565;SDS011;47788;46.172;-1.158;2022-09-06T00:48:15;11.88;;;4.70;;
58565;SDS011;47788;46.172;-1.158;2022-09-06T00:50:42;10.35;;;4.65;;
58565;SDS011;47788;46.172;-1.158;2022-09-06T00:53:10;11.13;;;4.55;;
58565;SDS011;47788;46.172;-1.158;2022-09-06T00:55:36;12.23;;;4.70;;
58565;SDS011;47788;46.172;-1.158;2022-09-06T00:58:02;10.98;;;4.38;;
58565;SDS011;47788;46.172;-1.158;2022-09-06T01:00:27;7.93;;;4.05;;
58565;SDS011;47788;46.172;-1.158;2022-09-06T01:02:53;11.05;;;4.00;;
58565;SDS011;47788;46.172;-1.158;2022-09-06T01:05:19;7.13;;;4.30;;
58565;SDS011;47788;46.172;-1.158;2022-09-06T01:07:50;13.07;;;4.28;;
58565;SDS011;47788;46.172;-1.158;2022-09-06T01:16:19;9.20;;;4.00;;
58565;SDS011;47788;46.172;-1.158;2022-09-06T01:21:59;7.00;;;4.07;;
58565;SDS011;47788;46.172;-1.158;2022-09-06T01:27:36;13.82;;;4.57;;
58565;SDS011;47788;46.172;-1.158;2022-09-06T01:30:22;10.57;;;4.53;;
58565;SDS011;47788;46.172;-1.158;2022-09-06T01:38:14;7.57;;;4.40;;
58565;SDS011;47788;46.172;-1.158;2022-09-06T01:40:41;11.13;;;4.70;;
58565;SDS011;47788;46.172;-1.158;2022-09-06T01:43:08;7.88;;;4.38;;
58565;SDS011;47788;46.172;-1.158;2022-09-06T02:04:55;9.13;;;4.10;;
58565;SDS011;47788;46.172;-1.158;2022-09-06T02:07:29;7.65;;;4.10;;
58565;SDS011;47788;46.172;-1.158;2022-09-06T02:09:58;10.00;;;3.92;;
58565;SDS011;47788;46.172;-1.158;2022-09-06T02:12:30;10.60;;;4.32;;
58565;SDS011;47788;46.172;-1.158;2022-09-06T02:17:25;12.52;;;4.47;;
58565;SDS011;47788;46.172;-1.158;2022-09-06T02:19:58;13.57;;;5.57;;
58565;SDS011;47788;46.172;-1.158;2022-09-06T02:22:31;11.43;;;4.38;;
58565;SDS011;47788;46.172;-1.158;2022-09-06T02:25:00;9.52;;;4.60;;
58565;SDS011;47788;46.172;-1.158;2022-09-06T02:27:27;9.55;;;4.32;;
58565;SDS011;47788;46.172;-1.158;2022-09-06T02:29:53;8.60;;;4.90;;
58565;SDS011;47788;46.172;-1.158;2022-09-06T02:32:20;9.55;;;4.70;;
58565;SDS011;47788;46.172;-1.158;2022-09-06T02:34:47;13.75;;;4.30;;
58565;SDS011;47788;46.172;-1.158;2022-09-06T02:37:16;13.65;;;4.82;;
58565;SDS011;47788;46.172;-1.158;2022-09-06T02:39:42;9.50;;;5.10;;
58565;SDS011;47788;46.172;-1.158;2022-09-06T02:42:08;13.00;;;4.38;;
58565;SDS011;47788;46.172;-1.158;2022-09-06T02:44:36;7.25;;;4.50;;
58565;SDS011;47788;46.172;-1.158;2022-09-06T02:47:02;11.77;;;5.07;;
58565;SDS011;47788;46.172;-1.158;2022-09-06T02:49:29;12.07;;;4.80;;
58565;SDS011;47788;46.172;-1.158;2022-09-06T02:51:55;9.55;;;4.32;;
58565;SDS011;47788;46.172;-1.158;2022-09-06T02:54:21;8.77;;;4.20;;
58565;SDS011;47788;46.172;-1.158;2022-09-06T02:56:47;10.32;;;4.10;;
58565;SDS011;47788;46.172;-1.158;2022-09-06T02:59:13;9.35;;;4.80;;
58565;SDS011;47788;46.172;-1.158;2022-09-06T03:01:38;10.40;;;4.53;;
58565;SDS011;47788;46.172;-1.158;2022-09-06T03:04:04;11.00;;;5.00;;
58565;SDS011;47788;46.172;-1.158;2022-09-06T03:06:30;7.90;;;4.35;;
58565;SDS011;47788;46.172;-1.158;2022-09-06T03:08:56;10.85;;;5.10;;
58565;SDS011;47788;46.172;-1.158;2022-09-06T03:11:23;10.30;;;4.95;;
58565;SDS011;47788;46.172;-1.158;2022-09-06T03:13:49;10.30;;;4.07;;
58565;SDS011;47788;46.172;-1.158;2022-09-06T03:16:16;8.55;;;4.10;;
58565;SDS011;47788;46.172;-1.158;2022-09-06T03:18:42;12.63;;;5.60;;
58565;SDS011;47788;46.172;-1.158;2022-09-06T03:21:08;9.00;;;4.60;;
58565;SDS011;47788;46.172;-1.158;2022-09-06T03:23:34;8.90;;;4.72;;
58565;SDS011;47788;46.172;-1.158;2022-09-06T03:25:59;11.02;;;5.05;;
58565;SDS011;47788;46.172;-1.158;2022-09-06T03:28:25;16.02;;;5.03;;
58565;SDS011;47788;46.172;-1.158;2022-09-06T03:30:51;12.40;;;4.60;;
58565;SDS011;47788;46.172;-1.158;2022-09-06T03:33:17;12.70;;;4.97;;
58565;SDS011;47788;46.172;-1.158;2022-09-06T03:35:48;11.85;;;5.07;;
58565;SDS011;47788;46.172;-1.158;2022-09-06T03:38:16;10.70;;;4.97;;
58565;SDS011;47788;46.172;-1.158;2022-09-06T03:40:48;12.88;;;4.93;;
58565;SDS011;47788;46.172;-1.158;2022-09-06T03:43:14;11.05;;;5.43;;
58565;SDS011;47788;46.172;-1.158;2022-09-06T03:45:45;10.55;;;5.05;;
58565;SDS011;47788;46.172;-1.158;2022-09-06T03:48:15;12.50;;;5.53;;
58565;SDS011;47788;46.172;-1.158;2022-09-06T03:50:43;13.13;;;5.18;;
58565;SDS011;47788;46.172;-1.158;2022-09-06T03:53:10;9.93;;;5.72;;
58565;SDS011;47788;46.172;-1.158;2022-09-06T03:55:36;9.80;;;5.65;;
58565;SDS011;47788;46.172;-1.158;2022-09-06T03:58:01;11.05;;;5.72;;
58565;SDS011;47788;46.172;-1.158;2022-09-06T04:00:27;11.00;;;5.93;;
58565;SDS011;47788;46.172;-1.158;2022-09-06T04:02:52;9.68;;;4.85;;
58565;SDS011;47788;46.172;-1.158;2022-09-06T04:05:18;13.73;;;6.20;;
58565;SDS011;47788;46.172;-1.158;2022-09-06T04:07:44;10.80;;;5.70;;
58565;SDS011;47788;46.172;-1.158;2022-09-06T04:10:09;10.48;;;5.53;;
58565;SDS011;47788;46.172;-1.158;2022-09-06T04:12:35;13.75;;;5.47;;
58565;SDS011;47788;46.172;-1.158;2022-09-06T04:15:01;12.38;;;5.43;;
58565;SDS011;47788;46.172;-1.158;2022-09-06T04:17:26;11.48;;;5.25;;
58565;SDS011;47788;46.172;-1.158;2022-09-06T04:19:52;10.15;;;5.60;;
58565;SDS011;47788;46.172;-1.158;2022-09-06T04:22:17;9.93;;;5.40;;
58565;SDS011;47788;46.172;-1.158;2022-09-06T04:24:43;11.30;;;4.97;;
58565;SDS011;47788;46.172;-1.158;2022-09-06T04:27:08;8.40;;;5.03;;
58565;SDS011;47788;46.172;-1.158;2022-09-06T04:29:34;10.32;;;5.22;;
58565;SDS011;47788;46.172;-1.158;2022-09-06T04:32:00;12.80;;;4.82;;
58565;SDS011;47788;46.172;-1.158;2022-09-06T04:34:25;14.82;;;5.35;;
58565;SDS011;47788;46.172;-1.158;2022-09-06T04:36:51;14.18;;;5.50;;
58565;SDS011;47788;46.172;-1.158;2022-09-06T04:39:17;15.68;;;5.28;;
58565;SDS011;47788;46.172;-1.158;2022-09-06T04:41:42;9.57;;;4.82;;
58565;SDS011;47788;46.172;-1.158;2022-09-06T04:44:08;11.13;;;5.55;;
58565;SDS011;47788;46.172;-1.158;2022-09-06T04:46:33;12.18;;;4.88;;
58565;SDS011;47788;46.172;-1.158;2022-09-06T04:48:59;12.15;;;5.43;;
58565;SDS011;47788;46.172;-1.158;2022-09-06T04:51:25;9.88;;;5.20;;
58565;SDS011;47788;46.172;-1.158;2022-09-06T04:53:51;13.45;;;4.90;;
58565;SDS011;47788;46.172;-1.158;2022-09-06T04:56:18;12.75;;;5.35;;
58565;SDS011;47788;46.172;-1.158;2022-09-06T04:58:46;9.95;;;4.85;;
58565;SDS011;47788;46.172;-1.158;2022-09-06T05:01:13;14.05;;;5.38;;
58565;SDS011;47788;46.172;-1.158;2022-09-06T05:03:39;15.27;;;6.20;;
58565;SDS011;47788;46.172;-1.158;2022-09-06T05:06:06;10.23;;;4.85;;
58565;SDS011;47788;46.172;-1.158;2022-09-06T05:08:36;11.02;;;5.50;;
58565;SDS011;47788;46.172;-1.158;2022-09-06T05:11:03;9.32;;;4.85;;
58565;SDS011;47788;46.172;-1.158;2022-09-06T05:13:30;10.95;;;5.25;;
58565;SDS011;47788;46.172;-1.158;2022-09-06T05:15:58;13.45;;;4.95;;
58565;SDS011;47788;46.172;-1.158;2022-09-06T05:18:25;12.32;;;5.65;;
58565;SDS011;47788;46.172;-1.158;2022-09-06T05:20:51;17.50;;;5.55;;
58565;SDS011;47788;46.172;-1.158;2022-09-06T05:23:17;10.40;;;4.97;;
58565;SDS011;47788;46.172;-1.158;2022-09-06T05:25:43;10.35;;;5.93;;
58565;SDS011;47788;46.172;-1.158;2022-09-06T05:28:09;11.15;;;4.75;;
58565;SDS011;47788;46.172;-1.158;2022-09-06T05:30:35;9.55;;;5.40;;
58565;SDS011;47788;46.172;-1.158;2022-09-06T05:33:00;13.00;;;5.00;;
58565;SDS011;47788;46.172;-1.158;2022-09-06T05:35:26;12.40;;;4.93;;
58565;SDS011;47788;46.172;-1.158;2022-09-06T05:37:51;11.57;;;5.88;;
58565;SDS011;47788;46.172;-1.158;2022-09-06T05:40:17;10.65;;;5.25;;
58565;SDS011;47788;46.172;-1.158;2022-09-06T05:42:42;9.93;;;5.18;;
58565;SDS011;47788;46.172;-1.158;2022-09-06T05:45:08;15.48;;;6.65;;
58565;SDS011;47788;46.172;-1.158;2022-09-06T05:47:34;13.75;;;5.40;;
58565;SDS011;47788;46.172;-1.158;2022-09-06T05:50:00;12.40;;;5.88;;
58565;SDS011;47788;46.172;-1.158;2022-09-06T05:52:26;11.70;;;7.28;;
58565;SDS011;47788;46.172;-1.158;2022-09-06T05:54:52;13.82;;;6.43;;
58565;SDS011;47788;46.172;-1.158;2022-09-06T05:57:18;15.88;;;6.70;;
58565;SDS011;47788;46.172;-1.158;2022-09-06T05:59:44;14.13;;;6.43;;
58565;SDS011;47788;46.172;-1.158;2022-09-06T06:02:09;13.40;;;6.78;;
58565;SDS011;47788;46.172;-1.158;2022-09-06T06:04:35;12.93;;;7.07;;
58565;SDS011;47788;46.172;-1.158;2022-09-06T06:07:00;10.57;;;6.32;;
58565;SDS011;47788;46.172;-1.158;2022-09-06T06:09:26;12.07;;;6.13;;
58565;SDS011;47788;46.172;-1.158;2022-09-06T06:11:52;15.93;;;7.38;;
58565;SDS011;47788;46.172;-1.158;2022-09-06T06:14:17;12.73;;;7.03;;
58565;SDS011;47788;46.172;-1.158;2022-09-06T06:16:43;13.63;;;7.15;;
58565;SDS011;47788;46.172;-1.158;2022-09-06T06:19:08;13.45;;;5.90;;
58565;SDS011;47788;46.172;-1.158;2022-09-06T06:21:34;13.88;;;6.57;;
58565;SDS011;47788;46.172;-1.158;2022-09-06T06:24:02;9.57;;;6.55;;
58565;SDS011;47788;46.172;-1.158;2022-09-06T06:26:30;11.80;;;6.53;;
58565;SDS011;47788;46.172;-1.158;2022-09-06T06:28:57;14.63;;;6.20;;
58565;SDS011;47788;46.172;-1.158;2022-09-06T06:31:26;13.68;;;6.22;;
58565;SDS011;47788;46.172;-1.158;2022-09-06T06:33:53;15.20;;;6.28;;
58565;SDS011;47788;46.172;-1.158;2022-09-06T06:36:20;17.50;;;6.72;;
58565;SDS011;47788;46.172;-1.158;2022-09-06T06:38:47;17.83;;;6.20;;
58565;SDS011;47788;46.172;-1.158;2022-09-06T06:41:16;12.15;;;5.15;;
58565;SDS011;47788;46.172;-1.158;2022-09-06T06:43:43;11.23;;;5.28;;
58565;SDS011;47788;46.172;-1.158;2022-09-06T06:46:12;12.35;;;4.70;;
58565;SDS011;47788;46.172;-1.158;2022-09-06T06:48:39;9.02;;;4.40;;
58565;SDS011;47788;46.172;-1.158;2022-09-06T06:51:06;9.45;;;4.05;;
58565;SDS011;47788;46.172;-1.158;2022-09-06T06:53:32;11.73;;;4.05;;
58565;SDS011;47788;46.172;-1.158;2022-09-06T06:55:59;10.85;;;4.18;;
58565;SDS011;47788;46.172;-1.158;2022-09-06T06:58:25;9.80;;;3.67;;
58565;SDS011;47788;46.172;-1.158;2022-09-06T07:00:51;9.02;;;3.83;;
58565;SDS011;47788;46.172;-1.158;2022-09-06T07:03:17;7.55;;;2.90;;
58565;SDS011;47788;46.172;-1.158;2022-09-06T07:05:43;8.60;;;3.50;;
58565;SDS011;47788;46.172;-1.158;2022-09-06T07:08:11;10.68;;;3.08;;
58565;SDS011;47788;46.172;-1.158;2022-09-06T07:10:36;10.73;;;3.40;;
58565;SDS011;47788;46.172;-1.158;2022-09-06T07:13:02;9.07;;;2.92;;
58565;SDS011;47788;46.172;-1.158;2022-09-06T07:15:28;8.73;;;3.08;;
58565;SDS011;47788;46.172;-1.158;2022-09-06T07:17:54;11.93;;;3.65;;
58565;SDS011;47788;46.172;-1.158;2022-09-06T07:20:21;10.35;;;2.92;;
58565;SDS011;47788;46.172;-1.158;2022-09-06T07:22:56;10.27;;;2.70;;
58565;SDS011;47788;46.172;-1.158;2022-09-06T07:25:23;10.68;;;3.10;;
58565;SDS011;47788;46.172;-1.158;2022-09-06T07:27:55;9.15;;;3.03;;
58565;SDS011;47788;46.172;-1.158;2022-09-06T07:30:25;7.82;;;2.40;;
58565;SDS011;47788;46.172;-1.158;2022-09-06T07:32:51;9.88;;;2.90;;
58565;SDS011;47788;46.172;-1.158;2022-09-06T07:35:17;9.23;;;2.40;;
58565;SDS011;47788;46.172;-1.158;2022-09-06T07:37:50;12.20;;;2.17;;
58565;SDS011;47788;46.172;-1.158;2022-09-06T07:40:20;9.68;;;2.40;;
58565;SDS011;47788;46.172;-1.158;2022-09-06T07:42:45;10.07;;;2.67;;
58565;SDS011;47788;46.172;-1.158;2022-09-06T07:45:11;5.35;;;2.03;;
58565;SDS011;47788;46.172;-1.158;2022-09-06T07:47:37;7.18;;;1.90;;
58565;SDS011;47788;46.172;-1.158;2022-09-06T07:50:03;7.40;;;2.00;;
58565;SDS011;47788;46.172;-1.158;2022-09-06T07:52:29;10.95;;;2.13;;
58565;SDS011;47788;46.172;-1.158;2022-09-06T07:54:55;7.80;;;1.90;;
58565;SDS011;47788;46.172;-1.158;2022-09-06T07:57:21;6.82;;;1.73;;
58565;SDS011;47788;46.172;-1.158;2022-09-06T07:59:47;6.07;;;1.83;;
58565;SDS011;47788;46.172;-1.158;2022-09-06T08:02:13;9.65;;;2.03;;
58565;SDS011;47788;46.172;-1.158;2022-09-06T08:04:41;7.00;;;1.38;;
58565;SDS011;47788;46.172;-1.158;2022-09-06T08:07:07;9.50;;;1.98;;
58565;SDS011;47788;46.172;-1.158;2022-09-06T08:09:33;6.38;;;1.60;;
58565;SDS011;47788;46.172;-1.158;2022-09-06T08:11:59;7.40;;;2.05;;
58565;SDS011;47788;46.172;-1.158;2022-09-06T08:14:31;13.18;;;1.77;;
58565;SDS011;47788;46.172;-1.158;2022-09-06T08:17:00;8.65;;;1.77;;
58565;SDS011;47788;46.172;-1.158;2022-09-06T08:19:26;9.05;;;1.45;;
58565;SDS011;47788;46.172;-1.158;2022-09-06T08:21:52;3.35;;;1.23;;
58565;SDS011;47788;46.172;-1.158;2022-09-06T08:24:19;5.97;;;1.65;;
58565;SDS011;47788;46.172;-1.158;2022-09-06T08:26:45;9.65;;;1.92;;
58565;SDS011;47788;46.172;-1.158;2022-09-06T08:29:11;8.07;;;1.67;;
58565;SDS011;47788;46.172;-1.158;2022-09-06T08:31:39;6.35;;;1.67;;
58565;SDS011;47788;46.172;-1.158;2022-09-06T08:34:06;5.32;;;1.42;;
58565;SDS011;47788;46.172;-1.158;2022-09-06T08:36:32;12.23;;;2.33;;
58565;SDS011;47788;46.172;-1.158;2022-09-06T08:38:59;8.20;;;1.52;;
58565;SDS011;47788;46.172;-1.158;2022-09-06T08:41:27;8.30;;;1.83;;
58565;SDS011;47788;46.172;-1.158;2022-09-06T08:46:32;7.78;;;1.60;;
58565;SDS011;47788;46.172;-1.158;2022-09-06T08:49:05;9.07;;;1.70;;
58565;SDS011;47788;46.172;-1.158;2022-09-06T08:54:44;8.77;;;1.80;;
58565;SDS011;47788;46.172;-1.158;2022-09-06T08:57:16;13.60;;;1.85;;
58565;SDS011;47788;46.172;-1.158;2022-09-06T09:00:07;8.50;;;1.80;;
58565;SDS011;47788;46.172;-1.158;2022-09-06T09:02:42;10.20;;;1.58;;
58565;SDS011;47788;46.172;-1.158;2022-09-06T09:05:20;6.68;;;1.65;;
58565;SDS011;47788;46.172;-1.158;2022-09-06T09:10:33;7.32;;;1.55;;
58565;SDS011;47788;46.172;-1.158;2022-09-06T09:13:05;8.55;;;2.08;;
58565;SDS011;47788;46.172;-1.158;2022-09-06T09:15:33;10.63;;;1.88;;
58565;SDS011;47788;46.172;-1.158;2022-09-06T09:18:00;9.45;;;1.67;;
58565;SDS011;47788;46.172;-1.158;2022-09-06T09:20:26;7.47;;;1.52;;
58565;SDS011;47788;46.172;-1.158;2022-09-06T09:22:52;7.35;;;1.40;;
58565;SDS011;47788;46.172;-1.158;2022-09-06T09:25:22;8.85;;;2.10;;
58565;SDS011;47788;46.172;-1.158;2022-09-06T09:27:49;10.10;;;2.05;;
58565;SDS011;47788;46.172;-1.158;2022-09-06T09:30:22;8.20;;;1.85;;
58565;SDS011;47788;46.172;-1.158;2022-09-06T09:32:49;6.22;;;1.80;;
58565;SDS011;47788;46.172;-1.158;2022-09-06T09:37:46;5.78;;;1.30;;
58565;SDS011;47788;46.172;-1.158;2022-09-06T09:40:13;8.15;;;1.85;;
58565;SDS011;47788;46.172;-1.158;2022-09-06T09:42:49;7.78;;;1.42;;
58565;SDS011;47788;46.172;-1.158;2022-09-06T09:47:45;5.45;;;1.40;;
58565;SDS011;47788;46.172;-1.158;2022-09-06T09:50:21;7.53;;;1.50;;
58565;SDS011;47788;46.172;-1.158;2022-09-06T09:52:53;7.78;;;1.63;;
58565;SDS011;47788;46.172;-1.158;2022-09-06T09:55:22;6.68;;;1.65;;
58565;SDS011;47788;46.172;-1.158;2022-09-06T09:57:49;6.07;;;1.98;;
58565;SDS011;47788;46.172;-1.158;2022-09-06T10:05:59;6.43;;;1.42;;
58565;SDS011;47788;46.172;-1.158;2022-09-06T10:08:25;7.80;;;1.45;;
58565;SDS011;47788;46.172;-1.158;2022-09-06T10:10:51;6.00;;;1.38;;
58565;SDS011;47788;46.172;-1.158;2022-09-06T10:13:35;3.78;;;1.10;;
58565;SDS011;47788;46.172;-1.158;2022-09-06T10:16:01;8.90;;;1.50;;
58565;SDS011;47788;46.172;-1.158;2022-09-06T10:18:31;9.07;;;1.60;;
58565;SDS011;47788;46.172;-1.158;2022-09-06T10:23:44;6.32;;;1.42;;
58565;SDS011;47788;46.172;-1.158;2022-09-06T10:26:16;6.20;;;2.47;;
58565;SDS011;47788;46.172;-1.158;2022-09-06T10:29:08;6.57;;;1.52;;
58565;SDS011;47788;46.172;-1.158;2022-09-06T10:31:46;7.13;;;1.42;;
58565;SDS011;47788;46.172;-1.158;2022-09-06T10:39:54;6.82;;;1.52;;
58565;SDS011;47788;46.172;-1.158;2022-09-06T10:47:44;5.22;;;1.67;;
58565;SDS011;47788;46.172;-1.158;2022-09-06T10:50:21;5.95;;;1.10;;
58565;SDS011;47788;46.172;-1.158;2022-09-06T10:52:52;6.60;;;1.55;;
58565;SDS011;47788;46.172;-1.158;2022-09-06T10:55:19;6.72;;;1.63;;
58565;SDS011;47788;46.172;-1.158;2022-09-06T10:57:56;6.10;;;1.77;;
58565;SDS011;47788;46.172;-1.158;2022-09-06T11:00:30;7.57;;;1.80;;
58565;SDS011;47788;46.172;-1.158;2022-09-06T11:03:00;6.70;;;1.73;;
58565;SDS011;47788;46.172;-1.158;2022-09-06T11:05:42;6.45;;;2.00;;
58565;SDS011;47788;46.172;-1.158;2022-09-06T11:08:20;6.00;;;1.77;;
58565;SDS011;47788;46.172;-1.158;2022-09-06T11:11:05;11.05;;;1.40;;
58565;SDS011;47788;46.172;-1.158;2022-09-06T11:13:35;8.48;;;1.80;;
58565;SDS011;47788;46.172;-1.158;2022-09-06T11:16:05;8.13;;;1.60;;
58565;SDS011;47788;46.172;-1.158;2022-09-06T11:24:15;8.18;;;1.95;;
58565;SDS011;47788;46.172;-1.158;2022-09-06T11:27:15;4.05;;;1.40;;
58565;SDS011;47788;46.172;-1.158;2022-09-06T11:29:44;18.48;;;3.83;;
58565;SDS011;47788;46.172;-1.158;2022-09-06T11:35:21;13.25;;;2.30;;
58565;SDS011;47788;46.172;-1.158;2022-09-06T11:38:00;15.77;;;2.28;;
58565;SDS011;47788;46.172;-1.158;2022-09-06T11:40:42;14.38;;;2.97;;
58565;SDS011;47788;46.172;-1.158;2022-09-06T11:43:12;20.00;;;2.75;;
58565;SDS011;47788;46.172;-1.158;2022-09-06T11:45:49;15.02;;;2.60;;
58565;SDS011;47788;46.172;-1.158;2022-09-06T11:53:30;17.17;;;2.20;;
58565;SDS011;47788;46.172;-1.158;2022-09-06T12:01:39;13.35;;;2.40;;
58565;SDS011;47788;46.172;-1.158;2022-09-06T12:04:06;12.50;;;2.05;;
58565;SDS011;47788;46.172;-1.158;2022-09-06T12:06:44;13.98;;;2.67;;
58565;SDS011;47788;46.172;-1.158;2022-09-06T12:09:39;12.13;;;2.88;;
58565;SDS011;47788;46.172;-1.158;2022-09-06T12:12:10;14.23;;;2.15;;
58565;SDS011;47788;46.172;-1.158;2022-09-06T12:14:56;9.88;;;2.42;;
58565;SDS011;47788;46.172;-1.158;2022-09-06T12:17:22;12.88;;;1.90;;
58565;SDS011;47788;46.172;-1.158;2022-09-06T12:19:53;10.98;;;2.38;;
58565;SDS011;47788;46.172;-1.158;2022-09-06T12:28:00;11.25;;;1.80;;
58565;SDS011;47788;46.172;-1.158;2022-09-06T12:30:39;6.93;;;1.30;;
58565;SDS011;47788;46.172;-1.158;2022-09-06T12:33:08;12.18;;;2.35;;
58565;SDS011;47788;46.172;-1.158;2022-09-06T12:35:41;7.25;;;2.97;;
58565;SDS011;47788;46.172;-1.158;2022-09-06T12:38:10;9.35;;;1.70;;
58565;SDS011;47788;46.172;-1.158;2022-09-06T12:40:40;9.77;;;1.67;;
58565;SDS011;47788;46.172;-1.158;2022-09-06T12:43:12;9.00;;;1.70;;
58565;SDS011;47788;46.172;-1.158;2022-09-06T12:45:44;7.00;;;1.17;;
58565;SDS011;47788;46.172;-1.158;2022-09-06T12:48:12;5.50;;;1.13;;
58565;SDS011;47788;46.172;-1.158;2022-09-06T12:51:02;8.70;;;1.90;;
58565;SDS011;47788;46.172;-1.158;2022-09-06T12:53:29;8.40;;;1.40;;
58565;SDS011;47788;46.172;-1.158;2022-09-06T12:58:32;5.93;;;1.40;;
58565;SDS011;47788;46.172;-1.158;2022-09-06T13:01:03;6.88;;;1.80;;
58565;SDS011;47788;46.172;-1.158;2022-09-06T13:04:31;5.13;;;1.33;;
58565;SDS011;47788;46.172;-1.158;2022-09-06T13:06:44;5.57;;;1.10;;
58565;SDS011;47788;46.172;-1.158;2022-09-06T13:09:15;6.68;;;1.38;;
58565;SDS011;47788;46.172;-1.158;2022-09-06T13:11:45;9.77;;;1.40;;
58565;SDS011;47788;46.172;-1.158;2022-09-06T13:14:20;8.75;;;1.70;;
58565;SDS011;47788;46.172;-1.158;2022-09-06T13:16:50;10.07;;;1.80;;
58565;SDS011;47788;46.172;-1.158;2022-09-06T13:19:39;6.38;;;1.45;;
58565;SDS011;47788;46.172;-1.158;2022-09-06T13:22:05;10.15;;;1.92;;
58565;SDS011;47788;46.172;-1.158;2022-09-06T13:26:57;8.13;;;1.60;;
58565;SDS011;47788;46.172;-1.158;2022-09-06T13:29:24;7.28;;;1.58;;
58565;SDS011;47788;46.172;-1.158;2022-09-06T13:31:55;7.82;;;1.95;;
58565;SDS011;47788;46.172;-1.158;2022-09-06T13:34:23;10.43;;;2.20;;
58565;SDS011;47788;46.172;-1.158;2022-09-06T13:36:51;10.73;;;1.95;;
58565;SDS011;47788;46.172;-1.158;2022-09-06T13:39:40;7.80;;;1.88;;
58565;SDS011;47788;46.172;-1.158;2022-09-06T13:42:22;6.93;;;1.38;;
58565;SDS011;47788;46.172;-1.158;2022-09-06T13:44:54;6.73;;;1.00;;
58565;SDS011;47788;46.172;-1.158;2022-09-06T13:47:20;6.47;;;1.40;;
58565;SDS011;47788;46.172;-1.158;2022-09-06T13:49:46;5.88;;;1.58;;
58565;SDS011;47788;46.172;-1.158;2022-09-06T13:52:14;8.75;;;1.40;;
58565;SDS011;47788;46.172;-1.158;2022-09-06T13:54:40;14.80;;;2.17;;
58565;SDS011;47788;46.172;-1.158;2022-09-06T13:57:06;6.30;;;0.95;;
58565;SDS011;47788;46.172;-1.158;2022-09-06T13:59:33;8.27;;;1.52;;
58565;SDS011;47788;46.172;-1.158;2022-09-06T14:02:09;7.55;;;1.90;;
58565;SDS011;47788;46.172;-1.158;2022-09-06T14:04:39;3.25;;;0.93;;
58565;SDS011;47788;46.172;-1.158;2022-09-06T14:07:05;4.47;;;1.10;;
58565;SDS011;47788;46.172;-1.158;2022-09-06T14:09:31;4.93;;;1.10;;
58565;SDS011;47788;46.172;-1.158;2022-09-06T14:11:57;4.57;;;0.98;;
58565;SDS011;47788;46.172;-1.158;2022-09-06T14:14:23;7.32;;;1.40;;
58565;SDS011;47788;46.172;-1.158;2022-09-06T14:16:49;8.50;;;1.05;;
58565;SDS011;47788;46.172;-1.158;2022-09-06T14:19:15;4.55;;;0.77;;
58565;SDS011;47788;46.172;-1.158;2022-09-06T14:21:40;5.50;;;0.70;;
58565;SDS011;47788;46.172;-1.158;2022-09-06T14:24:07;8.45;;;1.40;;
58565;SDS011;47788;46.172;-1.158;2022-09-06T14:26:34;4.35;;;0.90;;
58565;SDS011;47788;46.172;-1.158;2022-09-06T14:29:00;6.35;;;1.00;;
58565;SDS011;47788;46.172;-1.158;2022-09-06T14:31:27;3.83;;;1.30;;
58565;SDS011;47788;46.172;-1.158;2022-09-06T14:33:53;7.00;;;1.60;;
58565;SDS011;47788;46.172;-1.158;2022-09-06T14:36:21;5.57;;;1.40;;
58565;SDS011;47788;46.172;-1.158;2022-09-06T14:38:49;3.03;;;0.88;;
58565;SDS011;47788;46.172;-1.158;2022-09-06T14:41:16;5.07;;;1.02;;
58565;SDS011;47788;46.172;-1.158;2022-09-06T14:43:46;6.65;;;1.35;;
58565;SDS011;47788;46.172;-1.158;2022-09-06T14:46:16;14.80;;;1.52;;
58565;SDS011;47788;46.172;-1.158;2022-09-06T14:48:43;6.43;;;1.05;;
58565;SDS011;47788;46.172;-1.158;2022-09-06T14:51:11;5.93;;;1.25;;
58565;SDS011;47788;46.172;-1.158;2022-09-06T14:54:00;8.25;;;0.98;;
58565;SDS011;47788;46.172;-1.158;2022-09-06T14:56:28;7.57;;;1.27;;
58565;SDS011;47788;46.172;-1.158;2022-09-06T14:58:54;6.90;;;1.30;;
58565;SDS011;47788;46.172;-1.158;2022-09-06T15:01:22;5.47;;;1.30;;
58565;SDS011;47788;46.172;-1.158;2022-09-06T15:03:50;11.45;;;1.63;;
58565;SDS011;47788;46.172;-1.158;2022-09-06T15:06:20;9.80;;;1.70;;
58565;SDS011;47788;46.172;-1.158;2022-09-06T15:08:46;10.75;;;1.30;;
58565;SDS011;47788;46.172;-1.158;2022-09-06T15:11:13;6.72;;;1.13;;
58565;SDS011;47788;46.172;-1.158;2022-09-06T15:13:40;6.50;;;1.00;;
58565;SDS011;47788;46.172;-1.158;2022-09-06T15:16:07;8.82;;;1.00;;
58565;SDS011;47788;46.172;-1.158;2022-09-06T15:18:34;9.60;;;1.00;;
58565;SDS011;47788;46.172;-1.158;2022-09-06T15:21:10;8.80;;;1.15;;
58565;SDS011;47788;46.172;-1.158;2022-09-06T15:23:37;12.20;;;1.20;;
58565;SDS011;47788;46.172;-1.158;2022-09-06T15:26:05;7.38;;;1.55;;
58565;SDS011;47788;46.172;-1.158;2022-09-06T15:28:32;4.18;;;1.13;;
58565;SDS011;47788;46.172;-1.158;2022-09-06T15:30:59;7.07;;;1.45;;
58565;SDS011;47788;46.172;-1.158;2022-09-06T15:33:28;8.57;;;1.45;;
58565;SDS011;47788;46.172;-1.158;2022-09-06T15:35:55;6.30;;;1.38;;
58565;SDS011;47788;46.172;-1.158;2022-09-06T15:38:21;6.38;;;1.40;;
58565;SDS011;47788;46.172;-1.158;2022-09-06T15:40:47;5.50;;;1.13;;
58565;SDS011;47788;46.172;-1.158;2022-09-06T15:43:13;5.63;;;1.35;;
58565;SDS011;47788;46.172;-1.158;2022-09-06T15:45:48;4.38;;;1.45;;
58565;SDS011;47788;46.172;-1.158;2022-09-06T15:48:14;8.52;;;1.17;;
58565;SDS011;47788;46.172;-1.158;2022-09-06T15:50:42;7.03;;;1.20;;
58565;SDS011;47788;46.172;-1.158;2022-09-06T15:53:09;4.72;;;1.13;;
58565;SDS011;47788;46.172;-1.158;2022-09-06T15:55:35;6.28;;;1.10;;
58565;SDS011;47788;46.172;-1.158;2022-09-06T15:58:19;3.88;;;0.98;;
58565;SDS011;47788;46.172;-1.158;2022-09-06T16:00:45;4.60;;;1.17;;
58565;SDS011;47788;46.172;-1.158;2022-09-06T16:03:10;7.18;;;1.15;;
58565;SDS011;47788;46.172;-1.158;2022-09-06T16:05:36;5.38;;;1.27;;
58565;SDS011;47788;46.172;-1.158;2022-09-06T16:08:02;4.15;;;1.25;;
58565;SDS011;47788;46.172;-1.158;2022-09-06T16:10:28;7.63;;;1.08;;
58565;SDS011;47788;46.172;-1.158;2022-09-06T16:12:54;5.72;;;1.05;;
58565;SDS011;47788;46.172;-1.158;2022-09-06T16:15:19;6.07;;;1.02;;
58565;SDS011;47788;46.172;-1.158;2022-09-06T16:17:46;4.70;;;1.20;;
58565;SDS011;47788;46.172;-1.158;2022-09-06T16:20:12;2.55;;;1.00;;